»·PEaware :: N335AK KBUR-KSAC

N335AK :: KBUR-KSAC

FLIGHT INFORMATION

Flight Status: Arrived
Operator: Privately registered:
United States
More flights under this callsign
Pilot: Gabor H. (24209)
Aircraft: Unknown
(EPIC)
More flights by this aircraft type
Origin: KBUR Bob Hope-Burbank
United States
Destination: KSAC Sacramento Executive
United States
More flights between these airports :: More routes between these airports
Route: VNY3 GMN CZQ LIN
File this flight plan on PilotEdge
Remarks:
Altitude:
(Current/Filed)
26,000ft
Speed:
(Current/Filed)
325kts
Departed: 09-Oct-20 12:56 PM
Arrived: 09-Oct-20 02:02 PM
Distance/Time
Traveled:
300nm/1:05
Distance/Time
To Go:
Arrived

Flight Plot

Page will automatically refresh every two minutes.

Flight plan parsing failed; only flown route is shown


Map Options




Map Legend


Flown Route
Filed Route
Departure Airport
Arrival Airport
Navaid (VOR, NDB)
Fix

Horizontal Profiles

Position Reports

Time Latitude Longitude Heading Altitude Ground
Speed
09-Oct-20 12:43 34.200283 -118.358799 262 779ft 0kts
09-Oct-20 12:44 34.200283 -118.358799 262 779ft 0kts
09-Oct-20 12:45 34.200283 -118.358799 262 779ft 0kts
09-Oct-20 12:46 34.200283 -118.358799 262 779ft 0kts
09-Oct-20 12:47 34.200283 -118.358799 262 779ft 0kts
09-Oct-20 12:48 34.200283 -118.358799 262 779ft 0kts
09-Oct-20 12:49 34.200283 -118.358799 262 779ft 0kts
09-Oct-20 12:50 34.200283 -118.358799 262 779ft 0kts
09-Oct-20 12:51 34.201598 -118.359549 24 779ft 18kts
09-Oct-20 12:52 34.206239 -118.359951 348 779ft 21kts
09-Oct-20 12:53 34.211483 -118.361277 29 779ft 0kts
09-Oct-20 12:54 34.211264 -118.360160 166 779ft 0kts
09-Oct-20 12:55 34.182381 -118.355790 205 1734ft 172kts
09-Oct-20 12:56 34.146654 -118.396792 224 4000ft 191kts
09-Oct-20 12:57 34.147434 -118.446514 351 5578ft 214kts
09-Oct-20 12:58 34.204905 -118.467899 330 8119ft 222kts
09-Oct-20 12:59 34.259969 -118.503485 330 10667ft 229kts
09-Oct-20 13:00 34.316647 -118.540504 329 13098ft 236kts
09-Oct-20 13:01 34.374591 -118.578425 328 15288ft 241kts
09-Oct-20 13:02 34.434246 -118.617532 328 17039ft 246kts
09-Oct-20 13:03 34.494988 -118.657420 327 18532ft 252kts
09-Oct-20 13:04 34.557130 -118.698298 327 19811ft 256kts
09-Oct-20 13:05 34.620272 -118.739910 326 20924ft 262kts
09-Oct-20 13:06 34.684298 -118.782171 326 22028ft 263kts
09-Oct-20 13:07 34.748401 -118.824556 325 23177ft 260kts
09-Oct-20 13:08 34.811595 -118.864402 332 24368ft 257kts
09-Oct-20 13:09 34.877975 -118.894403 332 25564ft 252kts
09-Oct-20 13:10 34.945122 -118.924488 332 26080ft 272kts
09-Oct-20 13:11 35.020492 -118.958228 333 26066ft 302kts
09-Oct-20 13:12 35.100390 -118.994064 334 26045ft 318kts
09-Oct-20 13:13 35.184870 -119.032059 334 26027ft 325kts
09-Oct-20 13:14 35.270407 -119.070622 334 26026ft 328kts
09-Oct-20 13:15 35.356198 -119.109389 334 26026ft 329kts
09-Oct-20 13:16 35.441954 -119.148228 334 26026ft 330kts
09-Oct-20 13:17 35.528110 -119.187341 334 26026ft 330kts
09-Oct-20 13:18 35.614227 -119.226522 334 26026ft 330kts
09-Oct-20 13:19 35.700297 -119.265772 334 26027ft 330kts
09-Oct-20 13:20 35.786643 -119.305244 334 26026ft 331kts
09-Oct-20 13:21 35.872917 -119.344772 334 26029ft 331kts
09-Oct-20 13:22 35.958883 -119.384248 334 26037ft 331kts
09-Oct-20 13:23 36.045173 -119.423968 334 26039ft 331kts
09-Oct-20 13:24 36.129107 -119.462690 334 26033ft 331kts
09-Oct-20 13:25 36.215503 -119.502642 334 26032ft 330kts
09-Oct-20 13:26 36.301213 -119.542372 334 26032ft 330kts
09-Oct-20 13:27 36.387041 -119.582249 334 26032ft 330kts
09-Oct-20 13:28 36.473114 -119.622337 334 26032ft 330kts
09-Oct-20 13:29 36.558936 -119.662400 333 26038ft 330kts
09-Oct-20 13:30 36.644921 -119.702636 333 26039ft 331kts
09-Oct-20 13:31 36.730863 -119.742948 333 26039ft 331kts
09-Oct-20 13:32 36.817285 -119.783580 333 26039ft 331kts
09-Oct-20 13:33 36.899747 -119.830881 317 26047ft 322kts
09-Oct-20 13:34 36.970236 -119.899343 316 26043ft 322kts
09-Oct-20 13:35 37.040868 -119.968732 317 26046ft 324kts
09-Oct-20 13:36 37.112348 -120.039117 318 26044ft 329kts
09-Oct-20 13:37 37.184113 -120.109930 318 26042ft 330kts
09-Oct-20 13:38 37.256656 -120.181723 318 25677ft 342kts
09-Oct-20 13:39 37.334621 -120.259058 319 24191ft 367kts
09-Oct-20 13:40 37.415643 -120.339656 319 22686ft 376kts
09-Oct-20 13:41 37.497360 -120.421162 320 20911ft 364kts
09-Oct-20 13:42 37.575063 -120.498915 320 19505ft 353kts
09-Oct-20 13:43 37.651585 -120.575688 320 18003ft 351kts
09-Oct-20 13:44 37.726122 -120.650665 320 16497ft 350kts
09-Oct-20 13:45 37.802527 -120.727728 320 14941ft 348kts
09-Oct-20 13:46 37.877056 -120.803095 320 13415ft 333kts
09-Oct-20 13:47 37.947377 -120.874405 320 11979ft 317kts
09-Oct-20 13:48 38.015270 -120.943427 321 10596ft 311kts
09-Oct-20 13:49 38.078743 -121.008589 319 9292ft 285kts
09-Oct-20 13:50 38.137561 -121.073731 317 8047ft 278kts
09-Oct-20 13:51 38.185788 -121.146649 293 6708ft 270kts
09-Oct-20 13:52 38.217074 -121.232013 293 5194ft 262kts
09-Oct-20 13:53 38.246896 -121.314929 293 4100ft 256kts
09-Oct-20 13:54 38.275101 -121.395986 293 4017ft 252kts
09-Oct-20 13:55 38.303427 -121.479208 293 4019ft 259kts
09-Oct-20 13:56 38.332032 -121.563636 293 3159ft 258kts
09-Oct-20 13:57 38.389802 -121.595297 20 2137ft 242kts
09-Oct-20 13:58 38.439238 -121.555327 32 1588ft 163kts
09-Oct-20 13:59 38.468302 -121.531289 32 948ft 113kts
09-Oct-20 14:00 38.494148 -121.509882 32 327ft 109kts
09-Oct-20 14:01 38.511280 -121.496417 299 22ft 17kts
09-Oct-20 14:02 38.513073 -121.495892 34 24ft 19kts
09-Oct-20 14:03 38.514943 -121.498353 192 23ft 3kts
09-Oct-20 14:04 38.514840 -121.498430 229 23ft 0kts
09-Oct-20 14:06 38.514840 -121.498430 229 23ft 0kts
09-Oct-20 14:07 38.514840 -121.498430 229 23ft 0kts

Navigation Log

Ident Type
Flight plan parsing failed, navigation log unavailable